Bemidji, MN

1:35 AM CDT on May 25, 2017 (GMT -0500)
Little Bass Lake | | Change Station

Elev 1414 ft 47.51 °N, 94.80 °W | Updated 48 seconds ago

Partly Cloudy
Partly Cloudy
50.4 °F
Feels Like 50.4 °F
N
0.0
Wind Variable Wind from NE
Gusts 0.0 mph

Today
High -- | Low -- °F
--% Chance of Precip.
Yesterday
High -- | Low -- °F
Precip. -- in
Pressure 29.69 in
Visibility 10.0 miles
Clouds Overcast 4000 ft
Dew Point 44 °F
Humidity 80%
Rainfall 0.00 in
Snow Depth Not available.
5:31 AM 9:02 PM
Waning Crescent, 0% visible
METAR KPKD 250553Z AUTO 13006KT 10SM OVC040 12/05 A2968 RMK AO2 SLP052 60000 T01220050 10161 20117 401780044 58002
Pressure 29.69 in
Visibility 10.0 miles
Clouds Overcast 4000 ft
Dew Point 44 °F
Humidity 80%
Rainfall 0.00 in
Snow Depth Not available.
5:31 AM 9:02 PM
Waning Crescent, 0% visible
METAR KPKD 250553Z AUTO 13006KT 10SM OVC040 12/05 A2968 RMK AO2 SLP052 60000 T01220050 10161 20117 401780044 58002

Get Severe Weather Alerts

Thanks for signing up!

Be on the lookout for a verification email in your inbox.

You'll start receiving the daily forecast at 6 AM.

×

10-Day Weather Forecast

Almanac

Astronomy

May. 25, 2017 Rise Set
Actual Time
Civil Twilight
Nautical Twilight
Astronomical Twilight
Moon
Length of Visible Light
Length of Day
Tomorrow will be .
, % of the Moon is Illuminated

Today's Extremes

State Highs State Lows

Community

WunderPhotos

Category 6

Welcome to Category 6. This is the collective home for Weather Underground's featured writeups by Dr. Jeff Masters (right), Bob Henson (left), Chris Burt, and other regular contributors.

Nearby

Air Quality

  Air Quality AQ Index Pollutant
Not available.

Snow Depth

Station Depth Elevation

Earthquake Activity

City Distance Mag. Time & Date
Minimum magnitude displayed is 2.5.

Coastal Water Temperatures

Place Temperature

Stations

Nearby Weather Stations

Station Location Temp. Windchill Dew Point Humidity Wind Precip. Elev Updated Type
                   

Watches & Warnings

There are currently no watches in effect.